Time;durP1;ratioP1;P1;durP2;ratioP2;P2;SDS_P1;SDS_P2;PMS_P1;PMS_P2;Temp;Humidity;BMP_temperature;BMP_pressure;BME280_temperature;BME280_humidity;BME280_pressure;Samples;Min_cycle;Max_cycle;Signal;HPM_P1;HPM_P2
2022/10/01 00:02:53;;;;;;;1.05;0.52;;;;;;;;;;10488495;28;20425;-77
2022/10/01 00:07:57;;;;;;;0.43;0.43;;;;;;;;;;10479087;28;20047;-79
2022/10/01 00:13:01;;;;;;;0.70;0.43;;;;;;;;;;10480535;28;20044;-76
2022/10/01 00:18:04;;;;;;;0.60;0.60;;;;;;;;;;10509811;28;20044;-77
2022/10/01 00:23:09;;;;;;;1.05;0.70;;;;;;;;;;10465285;28;20047;-77
2022/10/01 00:28:12;;;;;;;0.55;0.50;;;;;;;;;;10495096;28;20040;-77
2022/10/01 00:33:16;;;;;;;0.85;0.70;;;;;;;;;;10462198;28;20628;-74
2022/10/01 00:38:21;;;;;;;0.88;0.77;;;;;;;;;;10485189;28;20045;-77
2022/10/01 00:43:27;;;;;;;1.08;0.50;;;;;;;;;;10513734;28;20527;-77
2022/10/01 00:48:38;;;;;;;1.48;0.93;;;;;;;;;;10515057;28;20132;-75
2022/10/01 00:53:45;;;;;;;0.40;0.40;;;;;;;;;;10486198;28;20051;-77
2022/10/01 00:58:53;;;;;;;1.95;0.85;;;;;;;;;;10489153;28;20048;-76
2022/10/01 01:03:57;;;;;;;0.90;0.65;;;;;;;;;;10494094;28;20037;-77
2022/10/01 01:09:02;;;;;;;1.55;0.73;;;;;;;;;;10484992;28;20037;-76
2022/10/01 01:14:14;;;;;;;1.13;0.80;;;;;;;;;;10498823;28;20040;-78
2022/10/01 01:19:32;;;;;;;0.88;0.63;;;;;;;;;;10515985;28;20523;-77
2022/10/01 01:24:47;;;;;;;2.10;0.85;;;;;;;;;;10499531;28;20055;-74
2022/10/01 01:30:03;;;;;;;3.05;1.13;;;;;;;;;;10497288;28;20044;-77
2022/10/01 01:35:09;;;;;;;0.82;0.60;;;;;;;;;;10515325;28;20052;-76
2022/10/01 01:40:14;;;;;;;;;;;;;;;;;;10497695;28;20036;-76
2022/10/01 01:45:24;;;;;;;1.40;0.70;;;;;;;;;;10509646;28;19921;-77
2022/10/01 01:50:30;;;;;;;2.53;0.63;;;;;;;;;;10520146;28;20043;-76
2022/10/01 01:55:36;;;;;;;1.52;0.65;;;;;;;;;;10503477;28;20093;-77
2022/10/01 02:00:41;;;;;;;0.57;0.47;;;;;;;;;;10500537;28;20068;-77
2022/10/01 02:05:52;;;;;;;2.20;0.90;;;;;;;;;;10509204;28;20040;-76
2022/10/01 02:11:15;;;;;;;1.67;0.80;;;;;;;;;;10474829;28;20365;-77
2022/10/01 02:16:26;;;;;;;1.15;0.88;;;;;;;;;;10490831;28;20090;-77
2022/10/01 02:21:34;;;;;;;0.73;0.50;;;;;;;;;;10499280;28;20097;-76
2022/10/01 02:26:39;;;;;;;0.60;0.60;;;;;;;;;;10502585;28;20141;-74
2022/10/01 02:31:46;;;;;;;0.90;0.60;;;;;;;;;;10516941;28;20048;-76
2022/10/01 02:36:50;;;;;;;1.15;0.80;;;;;;;;;;10520789;28;20040;-77
2022/10/01 02:41:55;;;;;;;0.90;0.65;;;;;;;;;;10518386;28;20036;-78
2022/10/01 02:47:06;;;;;;;0.90;0.80;;;;;;;;;;10499725;28;20044;-77
2022/10/01 02:52:14;;;;;;;0.75;0.60;;;;;;;;;;10497873;28;20572;-78
2022/10/01 02:57:26;;;;;;;1.05;0.65;;;;;;;;;;10490519;28;20045;-78
2022/10/01 03:02:31;;;;;;;1.42;0.70;;;;;;;;;;10490668;28;20040;-76
2022/10/01 03:07:35;;;;;;;2.95;0.75;;;;;;;;;;10507354;28;20057;-79
2022/10/01 03:12:44;;;;;;;0.80;0.70;;;;;;;;;;10488595;28;20118;-79
2022/10/01 03:17:51;;;;;;;0.57;0.50;;;;;;;;;;10496695;28;20131;-79
2022/10/01 03:22:54;;;;;;;1.10;0.70;;;;;;;;;;10495629;28;20105;-79
2022/10/01 03:27:58;;;;;;;1.08;0.70;;;;;;;;;;10502799;28;20157;-79
2022/10/01 03:33:03;;;;;;;2.17;0.82;;;;;;;;;;10506385;28;20039;-79
2022/10/01 03:38:07;;;;;;;1.65;0.88;;;;;;;;;;10502744;28;20119;-79
2022/10/01 03:43:11;;;;;;;0.93;0.60;;;;;;;;;;10485383;28;20052;-80
2022/10/01 03:48:17;;;;;;;1.38;0.80;;;;;;;;;;10491353;28;20437;-79
2022/10/01 03:53:20;;;;;;;1.73;0.70;;;;;;;;;;10510185;28;20044;-79
2022/10/01 03:58:34;;;;;;;0.82;0.60;;;;;;;;;;10476165;28;20531;-80
2022/10/01 04:03:40;;;;;;;1.30;0.57;;;;;;;;;;10487624;28;20071;-80
2022/10/01 04:08:44;;;;;;;0.60;0.60;;;;;;;;;;10464457;28;20407;-79
2022/10/01 04:13:47;;;;;;;1.45;0.88;;;;;;;;;;10495387;28;20524;-79
2022/10/01 04:18:52;;;;;;;0.70;0.57;;;;;;;;;;10496372;28;20051;-79
2022/10/01 04:23:55;;;;;;;1.25;1.10;;;;;;;;;;10506320;28;20052;-80
2022/10/01 04:28:59;;;;;;;1.67;0.60;;;;;;;;;;10468861;28;20097;-78
2022/10/01 04:34:04;;;;;;;1.02;0.77;;;;;;;;;;10486279;28;20105;-78
2022/10/01 04:39:07;;;;;;;1.38;0.93;;;;;;;;;;10495285;28;20036;-80
2022/10/01 04:44:10;;;;;;;1.60;1.05;;;;;;;;;;10483115;28;20040;-79
2022/10/01 04:49:15;;;;;;;1.77;1.00;;;;;;;;;;10505339;28;20056;-80
2022/10/01 04:54:19;;;;;;;1.35;1.00;;;;;;;;;;10493069;28;20046;-79
2022/10/01 04:59:22;;;;;;;1.73;0.80;;;;;;;;;;10490894;28;20515;-80
2022/10/01 05:04:27;;;;;;;1.65;0.63;;;;;;;;;;10509532;28;20143;-76
2022/10/01 05:09:31;;;;;;;1.75;0.80;;;;;;;;;;10527787;28;20044;-79
2022/10/01 05:14:34;;;;;;;1.08;0.57;;;;;;;;;;10459685;28;20145;-80
2022/10/01 05:19:39;;;;;;;1.13;0.60;;;;;;;;;;10501838;28;20044;-76
2022/10/01 05:24:43;;;;;;;0.65;0.65;;;;;;;;;;10501624;28;20056;-79
2022/10/01 05:29:46;;;;;;;0.73;0.73;;;;;;;;;;10506717;28;20075;-76
2022/10/01 05:34:51;;;;;;;1.20;0.80;;;;;;;;;;10516770;28;20409;-80
2022/10/01 05:39:55;;;;;;;0.90;0.60;;;;;;;;;;10486278;28;20108;-78
2022/10/01 05:45:01;;;;;;;2.60;1.00;;;;;;;;;;10492378;28;20657;-80
2022/10/01 05:50:07;;;;;;;0.98;0.70;;;;;;;;;;10535067;28;20115;-78
2022/10/01 05:55:10;;;;;;;0.82;0.60;;;;;;;;;;10467728;28;20055;-80
2022/10/01 06:00:14;;;;;;;0.68;0.50;;;;;;;;;;10493762;28;20044;-79
2022/10/01 06:05:19;;;;;;;0.40;0.40;;;;;;;;;;10491964;28;20399;-80
2022/10/01 06:10:23;;;;;;;1.50;0.57;;;;;;;;;;10506750;28;20488;-80
2022/10/01 06:15:27;;;;;;;0.57;0.32;;;;;;;;;;10498243;28;20086;-79
2022/10/01 06:20:32;;;;;;;0.68;0.50;;;;;;;;;;10495507;28;20115;-77
2022/10/01 06:25:37;;;;;;;0.77;0.40;;;;;;;;;;10485323;28;20044;-77
2022/10/01 06:30:41;;;;;;;0.50;0.50;;;;;;;;;;10492748;28;20064;-78
2022/10/01 06:35:47;;;;;;;1.25;0.43;;;;;;;;;;10500762;28;20044;-79
2022/10/01 06:40:53;;;;;;;0.80;0.50;;;;;;;;;;10507033;28;20062;-80
2022/10/01 06:45:57;;;;;;;0.95;0.40;;;;;;;;;;10512054;28;20696;-79
2022/10/01 06:51:02;;;;;;;1.15;0.40;;;;;;;;;;10479000;28;20040;-77
2022/10/01 06:56:06;;;;;;;0.75;0.32;;;;;;;;;;10479749;28;20041;-78
2022/10/01 07:01:10;;;;;;;0.38;0.38;;;;;;;;;;10503761;28;20041;-81
2022/10/01 07:06:15;;;;;;;2.78;0.25;;;;;;;;;;10519008;28;20093;-79
2022/10/01 07:11:18;;;;;;;1.17;0.30;;;;;;;;;;10507024;28;20039;-77
2022/10/01 07:16:21;;;;;;;0.40;0.40;;;;;;;;;;10513634;28;20412;-79
2022/10/01 07:21:26;;;;;;;0.52;0.30;;;;;;;;;;10503806;28;20033;-79
2022/10/01 07:26:29;;;;;;;0.22;0.22;;;;;;;;;;10481031;28;20040;-80
2022/10/01 07:31:33;;;;;;;0.20;0.20;;;;;;;;;;10488508;28;20801;-79
2022/10/01 07:36:38;;;;;;;0.20;0.20;;;;;;;;;;10487027;28;20261;-79
2022/10/01 07:41:42;;;;;;;0.20;0.20;;;;;;;;;;10497226;28;20063;-80
2022/10/01 07:46:47;;;;;;;0.52;0.20;;;;;;;;;;10504466;28;20378;-76
2022/10/01 07:51:52;;;;;;;0.20;0.20;;;;;;;;;;10513983;28;20040;-79
2022/10/01 07:56:56;;;;;;;0.10;0.10;;;;;;;;;;10514685;28;20048;-76
2022/10/01 08:01:59;;;;;;;0.20;0.20;;;;;;;;;;10484949;28;20507;-78
2022/10/01 08:07:05;;;;;;;0.28;0.28;;;;;;;;;;10490502;28;20040;-78
2022/10/01 08:12:08;;;;;;;0.60;0.20;;;;;;;;;;10504547;28;20041;-78
2022/10/01 08:17:11;;;;;;;0.55;0.55;;;;;;;;;;10513472;28;20050;-77
2022/10/01 08:22:16;;;;;;;0.20;0.20;;;;;;;;;;10505563;28;20048;-78
2022/10/01 08:27:19;;;;;;;0.30;0.28;;;;;;;;;;10462784;28;20128;-77
2022/10/01 08:32:24;;;;;;;0.30;0.20;;;;;;;;;;10498590;28;20036;-78
2022/10/01 08:37:29;;;;;;;0.20;0.20;;;;;;;;;;10491133;28;20047;-77
2022/10/01 08:42:43;;;;;;;0.10;0.10;;;;;;;;;;10481743;28;20055;-77
2022/10/01 08:47:52;;;;;;;0.50;0.35;;;;;;;;;;10471565;28;20548;-77
2022/10/01 08:53:01;;;;;;;0.80;0.52;;;;;;;;;;10494149;28;20036;-76
2022/10/01 08:58:06;;;;;;;0.22;0.22;;;;;;;;;;10502450;28;20041;-79
2022/10/01 09:03:13;;;;;;;0.30;0.30;;;;;;;;;;10491590;28;20074;-82
2022/10/01 09:08:21;;;;;;;;;;;;;;;;;;10503157;28;20044;-77
2022/10/01 09:14:04;;;;;;;0.30;0.30;;;;;;;;;;10508705;28;20288;-79
2022/10/01 09:19:18;;;;;;;0.30;0.30;;;;;;;;;;10479194;28;20137;-77
2022/10/01 09:24:37;;;;;;;0.57;0.57;;;;;;;;;;10471713;28;20036;-77
2022/10/01 09:29:45;;;;;;;0.32;0.20;;;;;;;;;;10496481;28;20381;-81
2022/10/01 09:34:49;;;;;;;1.00;0.30;;;;;;;;;;10488151;28;20504;-77
2022/10/01 09:40:13;;;;;;;0.28;0.22;;;;;;;;;;10469896;28;20041;-77
2022/10/01 09:45:18;;;;;;;0.13;0.13;;;;;;;;;;10476854;28;20050;-83
2022/10/01 09:50:29;;;;;;;0.45;0.20;;;;;;;;;;10472241;28;20047;-77
2022/10/01 09:55:38;;;;;;;0.30;0.30;;;;;;;;;;10512858;28;20055;-77
2022/10/01 10:00:43;;;;;;;0.30;0.30;;;;;;;;;;10478635;28;20082;-77
2022/10/01 10:05:48;;;;;;;0.28;0.28;;;;;;;;;;10503212;28;20738;-79
2022/10/01 10:10:57;;;;;;;0.20;0.20;;;;;;;;;;10485841;28;20040;-77
2022/10/01 10:16:06;;;;;;;0.60;0.30;;;;;;;;;;10485527;28;20054;-78
2022/10/01 10:21:16;;;;;;;0.82;0.40;;;;;;;;;;10477865;28;20089;-78
2022/10/01 10:26:27;;;;;;;0.60;0.50;;;;;;;;;;10477611;28;20133;-79
2022/10/01 10:31:39;;;;;;;0.55;0.40;;;;;;;;;;10492531;28;20044;-78
2022/10/01 10:36:44;;;;;;;0.52;0.40;;;;;;;;;;10474198;28;20072;-78
2022/10/01 10:41:51;;;;;;;1.90;0.30;;;;;;;;;;10497888;28;20040;-78
2022/10/01 10:46:59;;;;;;;1.27;0.50;;;;;;;;;;10464979;28;20509;-77
2022/10/01 10:52:03;;;;;;;1.08;0.40;;;;;;;;;;10495338;28;20051;-76
2022/10/01 10:57:19;;;;;;;0.60;0.30;;;;;;;;;;10499486;28;20055;-78
2022/10/01 11:02:24;;;;;;;1.17;0.20;;;;;;;;;;10471829;28;20056;-76
2022/10/01 11:07:28;;;;;;;0.30;0.20;;;;;;;;;;10501907;28;20044;-79
2022/10/01 11:12:49;;;;;;;0.60;0.25;;;;;;;;;;10508382;28;20082;-79
2022/10/01 11:18:14;;;;;;;2.30;0.30;;;;;;;;;;10463650;28;20040;-77
2022/10/01 11:23:48;;;;;;;0.75;0.30;;;;;;;;;;10474194;28;20044;-76
2022/10/01 11:29:17;;;;;;;1.58;0.40;;;;;;;;;;10496755;28;20047;-80
2022/10/01 11:34:48;;;;;;;1.38;0.40;;;;;;;;;;10500697;28;20467;-77
2022/10/01 11:39:55;;;;;;;2.10;0.70;;;;;;;;;;10469598;28;20068;-77
2022/10/01 11:45:10;;;;;;;2.80;0.73;;;;;;;;;;10450734;28;20676;-78
2022/10/01 11:50:17;;;;;;;;;;;;;;;;;;10477708;28;20036;-78
2022/10/01 12:00:57;;;;;;;1.17;0.50;;;;;;;;;;10480562;28;20080;-77
2022/10/01 12:06:02;;;;;;;2.08;0.60;;;;;;;;;;10479287;28;20044;-79
2022/10/01 12:11:19;;;;;;;2.97;0.70;;;;;;;;;;10481289;28;20036;-77
2022/10/01 12:16:32;;;;;;;3.25;1.05;;;;;;;;;;10479102;28;20478;-76
2022/10/01 12:21:43;;;;;;;1.25;0.70;;;;;;;;;;10475661;28;20119;-80
2022/10/01 12:26:59;;;;;;;3.38;0.70;;;;;;;;;;10482593;28;20052;-76
2022/10/01 12:32:12;;;;;;;2.78;0.60;;;;;;;;;;10471206;28;20116;-84
2022/10/01 12:37:29;;;;;;;1.55;0.52;;;;;;;;;;10450454;28;20040;-78
2022/10/01 12:42:42;;;;;;;;;;;;;;;;;;10440847;28;20052;-76
2022/10/01 12:47:55;;;;;;;1.95;0.57;;;;;;;;;;10456977;28;19973;-75
2022/10/01 12:53:16;;;;;;;3.05;0.80;;;;;;;;;;10447851;28;20059;-79
2022/10/01 12:58:34;;;;;;;4.55;1.00;;;;;;;;;;10453731;28;20048;-77
2022/10/01 13:04:04;;;;;;;1.73;0.43;;;;;;;;;;10426632;28;20734;-77
2022/10/01 13:09:25;;;;;;;2.97;1.00;;;;;;;;;;10459158;28;20074;-77
2022/10/01 13:14:31;;;;;;;1.70;0.40;;;;;;;;;;10448553;28;20124;-85
2022/10/01 13:19:40;;;;;;;;;;;;;;;;;;10460004;28;20045;-78
2022/10/01 13:24:49;;;;;;;3.08;0.98;;;;;;;;;;10469901;28;20388;-78
2022/10/01 13:29:58;;;;;;;3.30;1.02;;;;;;;;;;10430744;28;20045;-77
2022/10/01 13:35:23;;;;;;;1.70;0.70;;;;;;;;;;10439846;28;20037;-78
2022/10/01 13:40:28;;;;;;;2.50;0.93;;;;;;;;;;10454346;28;20134;-77
2022/10/01 13:45:41;;;;;;;1.70;0.70;;;;;;;;;;10447775;28;20087;-76
2022/10/01 13:51:03;;;;;;;3.15;0.80;;;;;;;;;;10443564;28;20084;-76
2022/10/01 13:56:10;;;;;;;1.95;0.47;;;;;;;;;;10474031;28;20056;-76
2022/10/01 14:01:37;;;;;;;2.50;0.73;;;;;;;;;;10433478;28;20041;-76
2022/10/01 14:06:50;;;;;;;2.03;0.50;;;;;;;;;;10426827;28;20045;-78
2022/10/01 14:17:21;;;;;;;2.55;0.70;;;;;;;;;;10444121;28;20048;-77
2022/10/01 14:22:47;;;;;;;2.42;0.70;;;;;;;;;;10423182;28;20524;-78
2022/10/01 14:28:13;;;;;;;3.55;0.90;;;;;;;;;;10459460;28;20048;-77
2022/10/01 14:33:47;;;;;;;2.35;0.70;;;;;;;;;;10468748;28;20059;-78
2022/10/01 14:39:02;;;;;;;2.58;0.93;;;;;;;;;;10459346;28;20040;-78
2022/10/01 14:44:20;;;;;;;3.33;0.85;;;;;;;;;;10471286;28;20043;-78
2022/10/01 14:49:26;;;;;;;3.22;0.65;;;;;;;;;;10472597;28;20044;-78
2022/10/01 14:54:37;;;;;;;2.53;0.60;;;;;;;;;;10480575;28;20048;-78
2022/10/01 14:59:41;;;;;;;4.60;1.00;;;;;;;;;;10462258;28;20135;-78
2022/10/01 15:04:46;;;;;;;3.92;0.95;;;;;;;;;;10474033;28;20064;-78
2022/10/01 15:09:51;;;;;;;1.33;0.50;;;;;;;;;;10469770;28;20049;-77
2022/10/01 15:14:55;;;;;;;2.30;0.75;;;;;;;;;;10479339;28;20052;-77
2022/10/01 15:19:58;;;;;;;3.03;0.60;;;;;;;;;;10469548;28;20574;-78
2022/10/01 15:25:04;;;;;;;2.92;1.02;;;;;;;;;;10469271;28;20527;-77
2022/10/01 15:30:17;;;;;;;3.60;1.10;;;;;;;;;;10472578;28;20043;-78
2022/10/01 15:35:22;;;;;;;5.10;1.60;;;;;;;;;;10463689;28;20047;-78
2022/10/01 15:40:29;;;;;;;5.27;1.00;;;;;;;;;;10519918;28;20044;-78
2022/10/01 15:45:33;;;;;;;9.50;1.67;;;;;;;;;;10489896;28;20052;-77
2022/10/01 15:50:37;;;;;;;3.15;1.23;;;;;;;;;;10465248;28;20053;-77
2022/10/01 15:55:45;;;;;;;5.38;1.20;;;;;;;;;;10454539;28;20049;-77
2022/10/01 16:01:02;;;;;;;7.05;1.50;;;;;;;;;;10459625;28;20048;-78
2022/10/01 16:06:07;;;;;;;3.05;1.05;;;;;;;;;;10506995;28;20389;-78
2022/10/01 16:11:22;;;;;;;4.27;1.00;;;;;;;;;;10518907;28;20050;-78
2022/10/01 16:16:28;;;;;;;4.28;1.25;;;;;;;;;;10501313;28;20044;-77
2022/10/01 16:21:40;;;;;;;3.67;0.90;;;;;;;;;;10473432;28;20040;-78
2022/10/01 16:26:46;;;;;;;4.13;1.10;;;;;;;;;;10488912;28;20064;-75
2022/10/01 16:31:50;;;;;;;2.43;0.70;;;;;;;;;;10471266;28;20040;-77
2022/10/01 16:36:53;;;;;;;5.95;1.02;;;;;;;;;;10467119;28;20115;-76
2022/10/01 16:42:00;;;;;;;6.35;1.50;;;;;;;;;;10486586;28;20503;-77
2022/10/01 16:47:14;;;;;;;2.92;0.93;;;;;;;;;;10500067;28;20048;-77
2022/10/01 16:52:17;;;;;;;4.28;1.02;;;;;;;;;;10496852;28;20044;-76
2022/10/01 16:57:22;;;;;;;4.45;1.00;;;;;;;;;;10487796;28;20130;-76
2022/10/01 17:02:25;;;;;;;1.90;0.75;;;;;;;;;;10506593;28;20283;-76
2022/10/01 17:07:29;;;;;;;4.30;1.35;;;;;;;;;;10472063;28;20044;-76
2022/10/01 17:12:33;;;;;;;3.70;1.02;;;;;;;;;;10488917;28;20057;-76
2022/10/01 17:17:37;;;;;;;4.93;1.42;;;;;;;;;;10505521;28;20044;-76
2022/10/01 17:22:41;;;;;;;5.07;1.73;;;;;;;;;;10500397;28;20079;-79
2022/10/01 17:27:46;;;;;;;5.57;1.00;;;;;;;;;;10530803;28;20056;-76
2022/10/01 17:32:51;;;;;;;5.60;1.40;;;;;;;;;;10519701;28;20419;-82
2022/10/01 17:37:54;;;;;;;3.53;1.00;;;;;;;;;;10488431;28;20144;-76
2022/10/01 17:42:59;;;;;;;4.03;1.20;;;;;;;;;;10506191;28;20036;-82
2022/10/01 17:48:03;;;;;;;8.40;1.00;;;;;;;;;;10480519;28;20044;-76
2022/10/01 17:53:06;;;;;;;2.97;0.77;;;;;;;;;;10502945;28;20028;-76
2022/10/01 17:58:11;;;;;;;3.50;0.80;;;;;;;;;;10507463;28;20501;-77
2022/10/01 18:03:16;;;;;;;3.40;1.10;;;;;;;;;;10494230;28;20524;-76
2022/10/01 18:08:20;;;;;;;4.40;1.05;;;;;;;;;;10483539;28;20036;-76
2022/10/01 18:13:31;;;;;;;3.55;1.05;;;;;;;;;;10527510;28;20036;-76
2022/10/01 18:18:35;;;;;;;5.82;1.30;;;;;;;;;;10487079;28;20417;-82
2022/10/01 18:23:58;;;;;;;3.63;0.98;;;;;;;;;;10480433;28;20040;-78
2022/10/01 18:29:07;;;;;;;1.60;0.50;;;;;;;;;;10505607;28;20048;-76
2022/10/01 18:34:17;;;;;;;4.25;0.90;;;;;;;;;;10493940;28;20037;-79
2022/10/01 18:39:28;;;;;;;2.40;0.60;;;;;;;;;;10498965;28;20045;-76
2022/10/01 18:44:32;;;;;;;2.60;0.80;;;;;;;;;;10507222;28;20397;-75
2022/10/01 18:49:55;;;;;;;4.00;0.98;;;;;;;;;;10480619;28;20048;-76
2022/10/01 18:55:26;;;;;;;1.75;0.50;;;;;;;;;;10497072;28;20127;-77
2022/10/01 19:00:40;;;;;;;4.15;1.08;;;;;;;;;;10526150;28;20535;-77
2022/10/01 19:06:02;;;;;;;4.60;1.13;;;;;;;;;;10432648;28;20476;-77
2022/10/01 19:11:13;;;;;;;3.70;1.55;;;;;;;;;;10444757;28;20067;-77
2022/10/01 19:16:33;;;;;;;5.10;0.98;;;;;;;;;;10493520;28;20039;-77
2022/10/01 19:21:43;;;;;;;3.80;0.90;;;;;;;;;;10472772;28;20118;-77
2022/10/01 19:26:56;;;;;;;4.55;1.25;;;;;;;;;;10525290;28;20046;-78
2022/10/01 19:32:07;;;;;;;3.20;0.85;;;;;;;;;;10460039;28;20052;-77
2022/10/01 19:37:17;;;;;;;5.15;1.10;;;;;;;;;;10503160;28;20407;-77
2022/10/01 19:42:24;;;;;;;2.85;0.93;;;;;;;;;;10517939;28;20127;-77
2022/10/01 19:47:38;;;;;;;3.85;1.00;;;;;;;;;;10517352;28;20730;-77
2022/10/01 19:52:44;;;;;;;4.47;1.23;;;;;;;;;;10519975;28;20055;-77
2022/10/01 19:57:48;;;;;;;3.83;1.30;;;;;;;;;;10469349;28;20044;-77
2022/10/01 20:03:00;;;;;;;4.45;1.20;;;;;;;;;;10520478;28;20115;-77
2022/10/01 20:08:07;;;;;;;3.58;1.10;;;;;;;;;;10517969;28;20035;-77
2022/10/01 20:13:30;;;;;;;2.63;0.70;;;;;;;;;;10477703;28;20779;-77
2022/10/01 20:18:41;;;;;;;2.55;0.88;;;;;;;;;;10518980;28;20055;-76
2022/10/01 20:23:53;;;;;;;4.93;1.13;;;;;;;;;;10505201;28;20051;-77
2022/10/01 20:29:12;;;;;;;3.88;0.95;;;;;;;;;;10500087;28;20044;-77
2022/10/01 20:34:26;;;;;;;4.72;1.13;;;;;;;;;;10494328;28;20043;-76
2022/10/01 20:39:34;;;;;;;5.15;0.90;;;;;;;;;;10486083;28;20051;-77
2022/10/01 20:44:39;;;;;;;3.83;0.60;;;;;;;;;;10484149;28;20051;-77
2022/10/01 20:49:48;;;;;;;4.75;1.10;;;;;;;;;;10497381;28;20049;-78
2022/10/01 20:54:55;;;;;;;4.18;1.20;;;;;;;;;;10517610;28;20499;-77
2022/10/01 21:00:05;;;;;;;3.05;0.60;;;;;;;;;;10501546;28;20495;-77
2022/10/01 21:05:16;;;;;;;6.25;2.20;;;;;;;;;;10463593;28;20033;-78
2022/10/01 21:10:24;;;;;;;4.55;1.23;;;;;;;;;;10497953;28;20043;-76
2022/10/01 21:15:35;;;;;;;3.33;1.08;;;;;;;;;;10502960;28;20040;-76
2022/10/01 21:20:47;;;;;;;1.83;0.70;;;;;;;;;;10488208;28;20528;-82
2022/10/01 21:26:00;;;;;;;2.75;0.68;;;;;;;;;;10512985;28;20040;-76
2022/10/01 21:31:18;;;;;;;2.40;0.60;;;;;;;;;;10518503;28;20044;-77
2022/10/01 21:36:31;;;;;;;3.78;1.33;;;;;;;;;;10484984;28;20047;-77
2022/10/01 21:41:52;;;;;;;4.70;1.80;;;;;;;;;;10519623;28;20130;-75
2022/10/01 21:47:02;;;;;;;5.03;1.50;;;;;;;;;;10513447;28;20056;-76
2022/10/01 21:52:13;;;;;;;4.97;1.60;;;;;;;;;;10462194;28;20047;-76
2022/10/01 21:57:43;;;;;;;5.90;1.27;;;;;;;;;;10469062;28;20139;-77
2022/10/01 22:02:57;;;;;;;4.30;1.27;;;;;;;;;;10473090;28;20048;-77
2022/10/01 22:08:15;;;;;;;4.05;1.20;;;;;;;;;;10497315;28;20435;-77
2022/10/01 22:13:22;;;;;;;8.27;1.50;;;;;;;;;;10464512;28;20393;-77
2022/10/01 22:18:32;;;;;;;2.42;0.75;;;;;;;;;;10491992;28;20051;-77
2022/10/01 22:23:40;;;;;;;7.03;1.73;;;;;;;;;;10478082;28;20052;-77
2022/10/01 22:28:48;;;;;;;3.28;0.98;;;;;;;;;;10485479;28;20573;-77
2022/10/01 22:33:55;;;;;;;7.40;1.42;;;;;;;;;;10487762;28;20052;-77
2022/10/01 22:39:05;;;;;;;5.65;1.15;;;;;;;;;;10466413;28;20741;-78
2022/10/01 22:44:13;;;;;;;4.30;0.90;;;;;;;;;;10494909;28;20048;-75
2022/10/01 22:49:31;;;;;;;2.53;0.80;;;;;;;;;;10498823;28;20052;-77
2022/10/01 22:54:51;;;;;;;2.53;0.70;;;;;;;;;;10499451;28;20040;-76
2022/10/01 23:00:04;;;;;;;3.08;0.65;;;;;;;;;;10486754;28;20053;-76
2022/10/01 23:05:37;;;;;;;1.88;0.60;;;;;;;;;;10520677;28;20074;-76
2022/10/01 23:10:50;;;;;;;3.42;0.90;;;;;;;;;;10503923;28;20051;-77
2022/10/01 23:16:00;;;;;;;2.17;0.60;;;;;;;;;;10511871;28;20040;-76
2022/10/01 23:21:14;;;;;;;1.60;0.60;;;;;;;;;;10519937;28;20036;-76
2022/10/01 23:26:29;;;;;;;2.00;0.60;;;;;;;;;;10518972;28;20036;-76
2022/10/01 23:31:39;;;;;;;3.47;0.70;;;;;;;;;;10520108;28;20087;-76
2022/10/01 23:36:48;;;;;;;2.15;0.70;;;;;;;;;;10504756;28;20119;-76
2022/10/01 23:41:58;;;;;;;3.58;0.82;;;;;;;;;;10520291;28;20052;-76
2022/10/01 23:47:05;;;;;;;2.50;0.55;;;;;;;;;;10515273;28;20048;-77
2022/10/01 23:52:17;;;;;;;4.47;0.85;;;;;;;;;;10501153;28;20623;-77
2022/10/01 23:57:26;;;;;;;3.33;0.68;;;;;;;;;;10518925;28;20451;-76
